Time;durP1;ratioP1;P1;durP2;ratioP2;P2;SDS_P1;SDS_P2;PMS_P1;PMS_P2;Temp;Humidity;BMP_temperature;BMP_pressure;BME280_temperature;BME280_humidity;BME280_pressure;Samples;Min_cycle;Max_cycle;Signal;HPM_P1;HPM_P2
2022/11/12 00:00:32;;;;;;;14.17;12.67;;;7.00;99.90;;;;;;4975080;28;20179;-67
2022/11/12 00:02:58;;;;;;;27.03;18.50;;;7.00;99.90;;;;;;4977185;28;20215;-66
2022/11/12 00:05:24;;;;;;;15.20;12.97;;;7.00;99.90;;;;;;4978799;28;20181;-66
2022/11/12 00:07:49;;;;;;;14.57;12.97;;;6.90;99.90;;;;;;4982411;28;20179;-66
2022/11/12 00:10:16;;;;;;;16.10;12.57;;;6.90;99.90;;;;;;4983290;28;20470;-66
2022/11/12 00:12:41;;;;;;;15.47;13.80;;;6.90;99.90;;;;;;4983524;28;20199;-67
2022/11/12 00:15:08;;;;;;;15.87;12.97;;;6.80;99.90;;;;;;4977945;28;20460;-66
2022/11/12 00:17:33;;;;;;;14.30;12.80;;;6.90;99.90;;;;;;4981339;28;20184;-67
2022/11/12 00:19:59;;;;;;;17.20;14.10;;;6.80;99.90;;;;;;4984090;28;20457;-66
2022/11/12 00:22:24;;;;;;;14.20;12.00;;;6.80;99.90;;;;;;4983019;28;20212;-67
2022/11/12 00:24:50;;;;;;;12.63;11.43;;;6.80;99.90;;;;;;4979960;28;20270;-66
2022/11/12 00:27:15;;;;;;;14.10;12.27;;;6.70;99.90;;;;;;4979156;28;20195;-68
2022/11/12 00:29:41;;;;;;;12.27;10.97;;;6.70;99.90;;;;;;4984457;28;20190;-69
2022/11/12 00:32:07;;;;;;;15.57;13.00;;;6.70;99.90;;;;;;4983858;28;20266;-66
2022/11/12 00:34:33;;;;;;;14.27;11.27;;;6.70;99.90;;;;;;4989381;28;20627;-65
2022/11/12 00:37:00;;;;;;;13.23;11.37;;;6.60;99.90;;;;;;4984361;28;20453;-66
2022/11/12 00:39:25;;;;;;;14.67;12.57;;;6.60;99.90;;;;;;4977927;28;20518;-69
2022/11/12 00:41:51;;;;;;;13.60;11.20;;;6.60;99.90;;;;;;4986794;28;20470;-66
2022/11/12 00:44:16;;;;;;;13.30;11.43;;;6.60;99.90;;;;;;4978444;28;20565;-68
2022/11/12 00:46:42;;;;;;;12.80;11.50;;;6.50;99.90;;;;;;4980427;28;20188;-66
2022/11/12 00:49:08;;;;;;;14.90;11.43;;;6.50;99.90;;;;;;4983427;28;20176;-66
2022/11/12 00:51:34;;;;;;;13.03;11.40;;;6.40;99.90;;;;;;4981943;28;20642;-66
2022/11/12 00:54:00;;;;;;;13.90;11.00;;;6.50;99.90;;;;;;4986839;28;20207;-66
2022/11/12 00:56:25;;;;;;;13.17;11.83;;;6.40;99.90;;;;;;4986075;28;20963;-66
2022/11/12 00:58:51;;;;;;;13.90;11.40;;;6.40;99.90;;;;;;4980304;28;20585;-66
2022/11/12 01:01:16;;;;;;;13.73;10.70;;;6.40;99.90;;;;;;4980599;28;22029;-66
2022/11/12 01:03:42;;;;;;;11.20;10.10;;;6.30;99.90;;;;;;4977384;28;20222;-66
2022/11/12 01:06:17;;;;;;;12.60;10.57;;;6.30;99.90;;;;;;4978951;28;20184;-66
2022/11/12 01:08:44;;;;;;;14.27;11.63;;;6.20;99.90;;;;;;4982538;28;20266;-66
2022/11/12 01:11:15;;;;;;;13.20;11.63;;;6.30;99.90;;;;;;4984312;28;20456;-69
2022/11/12 01:13:43;;;;;;;11.97;10.67;;;6.20;99.90;;;;;;4985556;28;20475;-68
2022/11/12 01:16:18;;;;;;;12.03;10.77;;;6.20;99.90;;;;;;4986187;28;20453;-67
2022/11/12 01:18:44;;;;;;;11.60;10.30;;;6.10;99.90;;;;;;4984343;28;20916;-67
2022/11/12 01:21:10;;;;;;;13.30;11.20;;;6.10;99.90;;;;;;4982522;28;20473;-65
2022/11/12 01:23:38;;;;;;;13.60;10.60;;;6.00;99.90;;;;;;4981596;28;20255;-68
2022/11/12 01:26:05;;;;;;;12.13;9.60;;;6.00;99.90;;;;;;4977656;28;20797;-67
2022/11/12 01:28:31;;;;;;;11.40;10.20;;;6.00;99.90;;;;;;4982019;28;20785;-68
2022/11/12 01:30:57;;;;;;;12.50;10.97;;;6.00;99.90;;;;;;4982829;28;20457;-68
2022/11/12 01:33:22;;;;;;;11.33;10.17;;;5.90;99.90;;;;;;4988374;28;20211;-68
2022/11/12 01:35:48;;;;;;;11.50;10.30;;;5.90;99.90;;;;;;4985385;28;20190;-68
2022/11/12 01:38:13;;;;;;;11.10;9.90;;;5.80;99.90;;;;;;4992106;28;20195;-67
2022/11/12 01:40:39;;;;;;;10.90;9.80;;;5.80;99.90;;;;;;4983324;28;20180;-68
2022/11/12 01:43:12;;;;;;;11.03;9.90;;;5.70;99.90;;;;;;4982483;28;20721;-68
2022/11/12 01:45:41;;;;;;;11.03;9.93;;;5.70;99.90;;;;;;4982178;28;20180;-68
2022/11/12 01:48:17;;;;;;;11.17;10.17;;;5.70;99.90;;;;;;4982209;28;20451;-68
2022/11/12 01:50:43;;;;;;;11.73;9.90;;;5.60;99.90;;;;;;4984389;28;20493;-68
2022/11/12 01:53:12;;;;;;;10.30;9.40;;;5.60;99.90;;;;;;4984993;28;20910;-67
2022/11/12 01:55:38;;;;;;;10.90;9.80;;;5.70;99.90;;;;;;4983081;28;20603;-67
2022/11/12 01:58:06;;;;;;;11.87;9.97;;;5.60;99.90;;;;;;4982197;28;20538;-68
2022/11/12 02:00:32;;;;;;;14.20;9.77;;;5.60;99.90;;;;;;4983291;28;20184;-67
2022/11/12 02:03:01;;;;;;;12.10;10.60;;;5.50;99.90;;;;;;4985299;28;20532;-67
2022/11/12 02:05:29;;;;;;;11.90;10.43;;;5.50;99.90;;;;;;4982646;28;20183;-67
2022/11/12 02:07:57;;;;;;;11.17;10.07;;;5.50;99.90;;;;;;4976057;28;20478;-67
2022/11/12 02:10:23;;;;;;;13.53;10.90;;;5.50;99.90;;;;;;4979134;28;20506;-66
2022/11/12 02:15:36;;;;;;;11.50;10.37;;;5.50;99.90;;;;;;4974563;28;20279;-67
2022/11/12 02:18:02;;;;;;;13.17;11.43;;;5.50;99.90;;;;;;4982225;28;20444;-67
2022/11/12 02:20:33;;;;;;;11.93;10.60;;;5.60;99.90;;;;;;4976270;28;21167;-67
2022/11/12 02:22:59;;;;;;;10.87;9.43;;;5.60;99.90;;;;;;4979153;28;20270;-67
2022/11/12 02:25:27;;;;;;;10.63;9.23;;;5.60;99.90;;;;;;4985461;28;20800;-67
2022/11/12 02:27:55;;;;;;;10.27;9.20;;;5.60;99.90;;;;;;4978635;28;21984;-67
2022/11/12 02:30:34;;;;;;;9.37;8.47;;;5.60;99.90;;;;;;4978640;28;20439;-68
2022/11/12 02:33:00;;;;;;;9.40;8.53;;;5.60;99.90;;;;;;4980935;28;20466;-67
2022/11/12 02:35:26;;;;;;;11.57;8.93;;;5.60;99.90;;;;;;4984613;28;20450;-67
2022/11/12 02:37:51;;;;;;;9.53;8.10;;;5.60;99.90;;;;;;4981002;28;20175;-67
2022/11/12 02:40:17;;;;;;;9.43;8.50;;;5.60;99.90;;;;;;4981221;28;20200;-68
2022/11/12 02:42:42;;;;;;;8.20;7.47;;;5.60;99.90;;;;;;4985567;28;20203;-67
2022/11/12 02:45:08;;;;;;;9.63;7.77;;;5.60;99.90;;;;;;4976797;28;20673;-67
2022/11/12 02:47:34;;;;;;;9.47;8.53;;;5.60;99.90;;;;;;4985058;28;20183;-67
2022/11/12 02:49:59;;;;;;;8.87;7.97;;;5.50;99.90;;;;;;4976015;28;20478;-67
2022/11/12 02:52:25;;;;;;;8.73;7.60;;;5.60;99.90;;;;;;4976712;28;20259;-67
2022/11/12 02:54:51;;;;;;;9.07;8.17;;;5.60;99.90;;;;;;4980868;28;20572;-67
2022/11/12 02:57:16;;;;;;;9.83;8.80;;;5.50;99.90;;;;;;4982705;28;20207;-68
2022/11/12 02:59:42;;;;;;;10.30;9.17;;;5.50;99.90;;;;;;4980593;28;20203;-67
2022/11/12 03:02:07;;;;;;;9.83;8.60;;;5.40;99.90;;;;;;4976953;28;20235;-68
2022/11/12 03:04:33;;;;;;;13.97;8.50;;;5.40;99.90;;;;;;4979846;28;20571;-67
2022/11/12 03:06:58;;;;;;;9.20;8.30;;;5.30;99.90;;;;;;4978378;28;20184;-67
2022/11/12 03:09:24;;;;;;;10.70;9.37;;;5.30;99.90;;;;;;4984303;28;20194;-67
2022/11/12 03:11:49;;;;;;;9.07;7.80;;;5.30;99.90;;;;;;4984810;28;20194;-67
2022/11/12 03:14:15;;;;;;;9.30;8.37;;;5.30;99.90;;;;;;4975504;28;20234;-68
2022/11/12 03:16:40;;;;;;;7.77;7.07;;;5.30;99.90;;;;;;4982277;28;20187;-68
2022/11/12 03:19:06;;;;;;;7.57;6.87;;;5.30;99.90;;;;;;4979949;28;20188;-67
2022/11/12 03:21:31;;;;;;;7.40;6.70;;;5.30;99.90;;;;;;4978830;28;20259;-67
2022/11/12 03:23:57;;;;;;;8.50;7.63;;;5.20;99.90;;;;;;4979626;28;20211;-67
2022/11/12 03:26:22;;;;;;;7.93;7.10;;;5.20;99.90;;;;;;4977669;28;20243;-66
2022/11/12 03:28:50;;;;;;;8.20;6.93;;;5.20;99.90;;;;;;4978788;28;20587;-67
2022/11/12 03:31:16;;;;;;;7.03;6.43;;;5.10;99.90;;;;;;4981588;28;20180;-67
2022/11/12 03:33:42;;;;;;;6.87;6.27;;;5.10;99.90;;;;;;4984576;28;20613;-67
2022/11/12 03:36:07;;;;;;;7.30;6.60;;;5.10;99.90;;;;;;4973307;28;20215;-68
2022/11/12 03:38:33;;;;;;;7.17;6.43;;;5.10;99.90;;;;;;4981591;28;20168;-67
2022/11/12 03:40:58;;;;;;;6.80;6.20;;;5.10;99.90;;;;;;4983764;28;20571;-67
2022/11/12 03:43:24;;;;;;;7.70;7.00;;;5.10;99.90;;;;;;4983399;28;20207;-68
2022/11/12 03:45:49;;;;;;;7.60;6.90;;;5.10;99.90;;;;;;4980064;28;20197;-67
2022/11/12 03:48:15;;;;;;;6.80;6.03;;;5.10;99.90;;;;;;4978189;28;20184;-68
2022/11/12 03:50:40;;;;;;;13.17;8.87;;;5.10;99.90;;;;;;4982929;28;20180;-68
2022/11/12 03:53:06;;;;;;;7.50;6.67;;;5.00;99.90;;;;;;4986586;28;20708;-67
2022/11/12 03:55:32;;;;;;;6.40;5.70;;;4.90;99.90;;;;;;4982239;28;20647;-67
2022/11/12 03:57:58;;;;;;;6.77;6.10;;;4.90;99.90;;;;;;4979275;28;20442;-68
2022/11/12 04:00:26;;;;;;;7.10;6.40;;;4.90;99.90;;;;;;4980320;28;20509;-68
2022/11/12 04:02:52;;;;;;;6.13;5.50;;;4.90;99.90;;;;;;4983506;28;20207;-66
2022/11/12 04:08:34;;;;;;;5.60;5.10;;;5.00;99.90;;;;;;4981259;28;20462;-68
2022/11/12 04:11:01;;;;;;;6.17;5.57;;;4.90;99.90;;;;;;4982615;28;20430;-66
2022/11/12 04:13:27;;;;;;;6.37;5.63;;;4.90;99.90;;;;;;4987242;28;20467;-67
2022/11/12 04:21:54;;;;;;;5.80;5.30;;;5.00;99.90;;;;;;4985667;28;20613;-67
2022/11/12 04:27:33;;;;;;;6.17;5.47;;;5.00;99.90;;;;;;4976815;28;20446;-67
2022/11/12 04:32:51;;;;;;;6.07;5.57;;;5.10;99.90;;;;;;4986090;28;20501;-67
2022/11/12 04:35:18;;;;;;;6.10;5.60;;;5.10;99.90;;;;;;4986453;28;20948;-67
2022/11/12 04:37:44;;;;;;;7.23;5.70;;;5.00;99.90;;;;;;4986898;28;21162;-67
2022/11/12 04:45:46;;;;;;;5.97;4.70;;;5.00;99.90;;;;;;4977459;28;20470;-68
2022/11/12 04:48:12;;;;;;;5.00;4.60;;;5.00;99.90;;;;;;4978655;28;20530;-68
2022/11/12 04:50:38;;;;;;;6.10;5.50;;;5.10;99.90;;;;;;4980692;28;20593;-68
2022/11/12 04:53:04;;;;;;;5.60;5.20;;;5.10;99.90;;;;;;4986787;28;20222;-67
2022/11/12 04:55:30;;;;;;;5.90;5.40;;;5.10;99.90;;;;;;4985172;28;20442;-68
2022/11/12 04:57:56;;;;;;;6.17;5.57;;;5.10;99.90;;;;;;4984635;28;20195;-67
2022/11/12 05:00:21;;;;;;;5.80;5.30;;;5.10;99.90;;;;;;4978844;28;20443;-67
2022/11/12 05:02:49;;;;;;;5.63;4.97;;;5.10;99.90;;;;;;4981661;28;20215;-68
2022/11/12 05:05:14;;;;;;;5.27;4.80;;;5.10;99.90;;;;;;4981965;28;20176;-68
2022/11/12 05:07:40;;;;;;;5.63;5.13;;;5.20;99.90;;;;;;4983969;28;20498;-67
2022/11/12 05:10:06;;;;;;;5.60;5.10;;;5.30;99.90;;;;;;4989224;28;20189;-67
2022/11/12 05:12:31;;;;;;;5.70;5.20;;;5.30;99.90;;;;;;4988210;28;20653;-68
2022/11/12 05:14:57;;;;;;;4.57;4.27;;;5.40;99.90;;;;;;4978205;28;20498;-67
2022/11/12 05:17:22;;;;;;;5.03;4.53;;;5.50;99.90;;;;;;4975100;28;20195;-68
2022/11/12 05:19:48;;;;;;;5.00;4.60;;;5.50;99.90;;;;;;4985530;28;20179;-68
2022/11/12 05:22:13;;;;;;;6.47;5.87;;;5.50;99.90;;;;;;4987661;28;20218;-68
2022/11/12 05:24:41;;;;;;;5.03;4.63;;;5.40;99.90;;;;;;4976096;28;20283;-67
2022/11/12 05:27:10;;;;;;;6.70;6.00;;;5.30;99.90;;;;;;4975859;28;20639;-67
2022/11/12 05:29:36;;;;;;;6.50;5.33;;;5.20;99.90;;;;;;4974707;28;20443;-68
2022/11/12 05:32:03;;;;;;;6.97;5.87;;;5.30;99.90;;;;;;4979962;28;20450;-67
2022/11/12 05:34:28;;;;;;;6.00;5.50;;;5.30;99.90;;;;;;4982189;28;20565;-67
2022/11/12 05:36:54;;;;;;;5.80;5.40;;;5.30;99.90;;;;;;4977800;28;20538;-67
2022/11/12 05:39:20;;;;;;;5.33;4.50;;;5.20;99.90;;;;;;4983488;28;20211;-67
2022/11/12 05:41:46;;;;;;;6.33;5.83;;;5.20;99.90;;;;;;4985571;28;20199;-67
2022/11/12 05:44:11;;;;;;;5.93;5.43;;;5.20;99.90;;;;;;4985801;28;20202;-67
2022/11/12 05:46:37;;;;;;;6.03;5.53;;;5.20;99.90;;;;;;4976950;28;20263;-67
2022/11/12 05:49:02;;;;;;;9.90;7.33;;;5.10;99.90;;;;;;4981775;28;20651;-67
2022/11/12 05:51:28;;;;;;;7.67;5.50;;;5.10;99.90;;;;;;4983766;28;20189;-67
2022/11/12 05:53:53;;;;;;;6.40;5.80;;;5.10;99.90;;;;;;4981517;28;20203;-67
2022/11/12 05:56:19;;;;;;;6.53;5.83;;;5.00;99.90;;;;;;4975231;28;20448;-67
2022/11/12 05:58:45;;;;;;;5.87;5.33;;;5.10;99.90;;;;;;4985290;28;20228;-67
2022/11/12 06:01:10;;;;;;;6.23;5.57;;;5.00;99.90;;;;;;4981136;28;20192;-67
2022/11/12 06:03:36;;;;;;;7.33;6.63;;;5.00;99.90;;;;;;4977806;28;20557;-67
2022/11/12 06:06:01;;;;;;;6.53;5.93;;;5.00;99.90;;;;;;4978229;28;20187;-67
2022/11/12 06:08:27;;;;;;;6.03;5.53;;;4.90;99.90;;;;;;4985312;28;20198;-67
2022/11/12 06:10:53;;;;;;;10.53;8.20;;;4.90;99.90;;;;;;4975728;28;20219;-67
2022/11/12 06:13:20;;;;;;;8.07;7.27;;;4.80;99.90;;;;;;4971706;28;20692;-67
2022/11/12 06:15:46;;;;;;;8.10;7.00;;;4.90;99.90;;;;;;4981037;28;20444;-68
2022/11/12 06:18:11;;;;;;;7.77;7.03;;;4.80;99.90;;;;;;4980046;28;20455;-69
2022/11/12 06:20:37;;;;;;;5.30;4.90;;;4.80;99.90;;;;;;4980363;28;20188;-67
2022/11/12 06:23:03;;;;;;;7.20;6.40;;;4.80;99.90;;;;;;4982617;28;20294;-68
2022/11/12 06:25:29;;;;;;;7.70;6.90;;;4.70;99.90;;;;;;4973368;28;20222;-67
2022/11/12 06:27:54;;;;;;;7.77;6.97;;;4.70;99.90;;;;;;4982844;28;20284;-67
2022/11/12 06:30:20;;;;;;;10.27;7.03;;;4.70;99.90;;;;;;4984948;28;20175;-67
2022/11/12 06:32:47;;;;;;;6.83;6.27;;;4.70;99.90;;;;;;4989114;28;20188;-67
2022/11/12 06:35:13;;;;;;;9.00;6.93;;;4.70;99.90;;;;;;4986380;28;20728;-67
2022/11/12 06:37:39;;;;;;;8.00;7.20;;;4.60;99.90;;;;;;4981410;28;20909;-67
2022/11/12 06:40:05;;;;;;;7.03;6.33;;;4.60;99.90;;;;;;4979853;28;20483;-67
2022/11/12 06:42:30;;;;;;;8.03;7.33;;;4.40;99.90;;;;;;4976328;28;20219;-67
2022/11/12 06:44:56;;;;;;;8.33;6.70;;;4.40;99.90;;;;;;4980689;28;20550;-67
2022/11/12 06:47:21;;;;;;;8.30;7.33;;;4.40;99.90;;;;;;4979050;28;20196;-67
2022/11/12 06:49:47;;;;;;;8.90;8.00;;;4.40;99.90;;;;;;4982474;28;20254;-67
2022/11/12 06:52:14;;;;;;;6.90;6.30;;;4.60;99.90;;;;;;4984724;28;20195;-67
2022/11/12 06:54:39;;;;;;;8.00;7.20;;;4.70;99.90;;;;;;4978540;28;20685;-68
2022/11/12 06:57:05;;;;;;;8.07;6.57;;;4.70;99.90;;;;;;4979667;28;20486;-68
2022/11/12 06:59:30;;;;;;;7.70;7.00;;;4.80;99.90;;;;;;4977762;28;20200;-67
2022/11/12 07:01:56;;;;;;;6.80;6.30;;;4.90;99.90;;;;;;4985145;28;20559;-68
2022/11/12 07:04:23;;;;;;;6.60;6.00;;;5.10;99.90;;;;;;4985271;28;20210;-67
2022/11/12 07:06:48;;;;;;;6.70;6.10;;;5.30;99.90;;;;;;4982574;28;20556;-67
2022/11/12 07:09:14;;;;;;;7.47;6.83;;;5.50;99.90;;;;;;4982193;28;20447;-68
2022/11/12 07:11:40;;;;;;;6.40;5.80;;;5.70;99.90;;;;;;4985590;28;20551;-67
2022/11/12 07:14:05;;;;;;;7.90;7.10;;;6.00;99.90;;;;;;4984186;28;20290;-68
2022/11/12 07:16:32;;;;;;;6.30;5.70;;;6.30;99.90;;;;;;4979209;28;20534;-67
2022/11/12 07:18:57;;;;;;;6.93;6.30;;;6.60;99.90;;;;;;4983331;28;20222;-67
2022/11/12 07:21:23;;;;;;;8.13;7.27;;;6.70;99.90;;;;;;4978051;28;20499;-67
2022/11/12 07:23:48;;;;;;;7.80;7.10;;;7.10;99.90;;;;;;4977558;28;22009;-67
2022/11/12 07:26:14;;;;;;;8.10;6.63;;;7.60;99.90;;;;;;4983895;28;20214;-67
2022/11/12 07:28:39;;;;;;;7.07;6.47;;;8.30;99.90;;;;;;4974986;28;20208;-67
2022/11/12 07:31:08;;;;;;;8.97;6.87;;;8.50;99.90;;;;;;4979507;28;20211;-67
2022/11/12 07:33:34;;;;;;;7.43;6.83;;;8.40;99.90;;;;;;4982330;28;20227;-67
2022/11/12 07:36:04;;;;;;;6.43;5.83;;;8.40;99.90;;;;;;4981990;28;20454;-67
2022/11/12 07:38:32;;;;;;;7.17;6.57;;;8.70;99.90;;;;;;4975734;28;20454;-67
2022/11/12 07:41:19;;;;;;;6.80;6.23;;;9.00;99.90;;;;;;4989444;28;20435;-67
2022/11/12 07:43:46;;;;;;;8.07;7.27;;;9.80;99.90;;;;;;4973074;28;21096;-67
2022/11/12 07:46:24;;;;;;;8.00;7.30;;;10.10;99.90;;;;;;4972835;28;20446;-67
2022/11/12 07:48:50;;;;;;;6.07;5.50;;;10.90;99.90;;;;;;4977212;28;20854;-68
2022/11/12 07:51:24;;;;;;;6.13;5.53;;;11.70;99.90;;;;;;4981854;28;20447;-68
2022/11/12 07:53:52;;;;;;;8.27;7.57;;;12.50;99.90;;;;;;4960638;28;20581;-67
2022/11/12 07:56:20;;;;;;;7.87;7.17;;;13.30;99.90;;;;;;4982362;28;20443;-68
2022/11/12 07:58:47;;;;;;;7.77;6.77;;;13.10;99.90;;;;;;4972146;28;20442;-67
2022/11/12 08:01:32;;;;;;;6.00;5.60;;;13.80;99.90;;;;;;4977290;28;20494;-67
2022/11/12 08:03:58;;;;;;;8.30;6.00;;;13.80;99.90;;;;;;4975493;28;20500;-67
2022/11/12 08:06:25;;;;;;;8.07;7.37;;;13.70;99.90;;;;;;4971033;28;21004;-68
2022/11/12 08:08:52;;;;;;;5.63;5.00;;;13.90;99.90;;;;;;4970179;28;20443;-67
2022/11/12 08:11:17;;;;;;;5.20;4.90;;;13.10;99.90;;;;;;4978483;28;21033;-68
2022/11/12 08:13:43;;;;;;;5.47;4.97;;;12.60;99.90;;;;;;4980561;28;20538;-67
2022/11/12 08:16:08;;;;;;;5.30;4.90;;;12.70;99.90;;;;;;4981340;28;20598;-68
2022/11/12 08:18:34;;;;;;;5.13;4.73;;;12.40;99.90;;;;;;4975803;28;20258;-68
2022/11/12 08:21:01;;;;;;;4.30;3.90;;;12.90;99.90;;;;;;4984287;28;20171;-68
2022/11/12 08:23:27;;;;;;;5.80;5.30;;;14.10;99.90;;;;;;4980690;28;20222;-68
2022/11/12 08:26:00;;;;;;;4.83;4.43;;;14.90;99.90;;;;;;4976745;28;20514;-68
2022/11/12 08:28:30;;;;;;;4.63;4.33;;;15.40;99.90;;;;;;4974959;28;20443;-68
2022/11/12 08:30:56;;;;;;;4.57;4.27;;;17.00;99.90;;;;;;4985373;28;20464;-67
2022/11/12 08:33:22;;;;;;;4.80;4.50;;;18.30;99.90;;;;;;4974337;28;20463;-66
2022/11/12 08:35:49;;;;;;;6.33;5.83;;;18.50;99.90;;;;;;4977333;28;20548;-66
2022/11/12 08:38:15;;;;;;;5.60;5.10;;;19.00;99.90;;;;;;4982458;28;20180;-66
2022/11/12 08:40:41;;;;;;;5.23;4.83;;;17.70;99.90;;;;;;4975911;28;20447;-67
2022/11/12 08:43:08;;;;;;;7.03;5.37;;;17.60;99.90;;;;;;4977846;28;20542;-67
2022/11/12 08:45:36;;;;;;;5.37;4.97;;;18.00;99.90;;;;;;4980737;28;20275;-67
2022/11/12 08:48:05;;;;;;;6.60;6.13;;;18.00;99.90;;;;;;4971437;28;21514;-67
2022/11/12 08:50:31;;;;;;;5.83;5.43;;;18.00;99.90;;;;;;4985146;28;20442;-67
2022/11/12 08:53:01;;;;;;;5.77;5.23;;;18.00;99.90;;;;;;4983327;28;20450;-66
2022/11/12 08:55:27;;;;;;;6.43;5.93;;;18.30;99.90;;;;;;4983351;28;20266;-67
2022/11/12 08:57:53;;;;;;;5.60;5.20;;;18.50;99.90;;;;;;4981030;28;20435;-68
2022/11/12 09:00:19;;;;;;;5.07;4.77;;;19.10;99.10;;;;;;4975114;28;20463;-67
2022/11/12 09:02:45;;;;;;;6.67;6.10;;;19.20;98.10;;;;;;4983773;28;20491;-67
2022/11/12 09:05:10;;;;;;;5.70;5.20;;;18.60;97.50;;;;;;4983112;28;20203;-67
2022/11/12 09:07:36;;;;;;;5.90;5.50;;;18.50;99.10;;;;;;4977362;28;20179;-67
2022/11/12 09:10:01;;;;;;;5.80;5.40;;;19.40;97.70;;;;;;4980293;28;20176;-67
2022/11/12 09:12:27;;;;;;;7.80;7.10;;;20.50;95.70;;;;;;4977913;28;20284;-66
2022/11/12 09:14:53;;;;;;;5.97;5.47;;;20.70;94.00;;;;;;4981468;28;20191;-68
2022/11/12 09:17:18;;;;;;;4.23;3.93;;;20.70;93.90;;;;;;4972491;28;20208;-67
2022/11/12 09:19:44;;;;;;;4.93;4.53;;;21.10;92.80;;;;;;4983078;28;20192;-66
2022/11/12 09:22:09;;;;;;;4.40;4.00;;;22.00;91.30;;;;;;4981830;28;20216;-67
2022/11/12 09:24:35;;;;;;;4.60;4.30;;;21.90;90.50;;;;;;4982001;28;20200;-66
2022/11/12 09:27:00;;;;;;;4.37;4.13;;;22.30;89.00;;;;;;4978257;28;20184;-67
2022/11/12 09:29:26;;;;;;;4.40;4.10;;;21.30;86.80;;;;;;4981846;28;20179;-67
2022/11/12 09:31:51;;;;;;;3.47;3.27;;;20.40;90.80;;;;;;4980692;28;20184;-67
2022/11/12 09:34:17;;;;;;;6.00;5.50;;;19.60;91.70;;;;;;4984072;28;20212;-67
2022/11/12 09:36:42;;;;;;;10.07;9.10;;;18.60;93.60;;;;;;4982046;28;20654;-68
2022/11/12 09:39:08;;;;;;;5.20;4.80;;;17.90;97.60;;;;;;4976651;28;20189;-66
2022/11/12 09:41:36;;;;;;;4.40;4.00;;;18.00;99.50;;;;;;4980590;28;20200;-66
2022/11/12 09:44:07;;;;;;;4.43;4.13;;;17.60;98.80;;;;;;4987294;28;20206;-67
2022/11/12 09:46:56;;;;;;;4.40;4.10;;;17.90;99.90;;;;;;4981613;28;20443;-66
2022/11/12 09:49:51;;;;;;;4.17;3.87;;;18.20;99.70;;;;;;4984516;28;20525;-66
2022/11/12 09:52:25;;;;;;;4.33;4.13;;;19.00;96.50;;;;;;4982504;28;20866;-67
2022/11/12 09:55:04;;;;;;;4.40;4.07;;;18.10;98.50;;;;;;4975683;28;20494;-66
2022/11/12 09:57:31;;;;;;;4.20;3.90;;;19.20;96.90;;;;;;4971896;28;20447;-66
2022/11/12 09:59:57;;;;;;;4.47;4.17;;;19.80;94.60;;;;;;4981144;28;20439;-66
2022/11/12 10:02:36;;;;;;;3.57;3.37;;;19.60;94.60;;;;;;4977582;28;20842;-66
2022/11/12 10:05:16;;;;;;;3.20;3.00;;;19.80;93.70;;;;;;4973230;28;20834;-68
2022/11/12 10:08:16;;;;;;;4.37;4.03;;;18.90;93.80;;;;;;4979948;28;21016;-66
2022/11/12 10:10:48;;;;;;;4.40;4.10;;;17.90;97.40;;;;;;4977282;28;20432;-66
2022/11/12 10:13:32;;;;;;;3.47;3.17;;;18.40;97.70;;;;;;4985117;28;20465;-66
2022/11/12 10:19:12;;;;;;;4.47;4.17;;;18.90;94.10;;;;;;4976897;28;20599;-66
2022/11/12 10:21:57;;;;;;;4.10;3.80;;;17.90;98.00;;;;;;4983025;28;20466;-68
2022/11/12 10:24:26;;;;;;;6.27;4.23;;;17.60;99.40;;;;;;4990656;28;21041;-67
2022/11/12 10:26:52;;;;;;;4.53;4.23;;;18.40;98.00;;;;;;4978054;28;21268;-68
2022/11/12 10:29:25;;;;;;;4.60;4.30;;;18.60;98.00;;;;;;4983000;28;20530;-67
2022/11/12 10:31:51;;;;;;;7.10;6.60;;;19.30;95.50;;;;;;4979383;28;20548;-66
2022/11/12 10:34:20;;;;;;;5.20;4.80;;;19.80;94.10;;;;;;4981508;28;20463;-65
2022/11/12 10:36:55;;;;;;;4.93;4.63;;;19.40;94.80;;;;;;4974310;28;20298;-65
2022/11/12 10:39:42;;;;;;;6.30;5.80;;;20.80;92.50;;;;;;4983214;28;20442;-66
2022/11/12 10:42:08;;;;;;;6.67;6.07;;;21.40;91.60;;;;;;4980824;28;20467;-67
2022/11/12 10:44:34;;;;;;;5.80;5.33;;;23.20;86.70;;;;;;4980775;28;20452;-66
2022/11/12 10:47:32;;;;;;;5.70;5.20;;;23.60;83.00;;;;;;4978876;28;20456;-66
2022/11/12 10:50:20;;;;;;;6.47;5.87;;;23.70;79.90;;;;;;4979259;28;20906;-66
2022/11/12 10:53:03;;;;;;;5.80;5.40;;;24.30;78.10;;;;;;4983333;28;20783;-66
2022/11/12 10:55:35;;;;;;;7.73;6.97;;;24.90;75.00;;;;;;4975873;28;20443;-66
2022/11/12 10:58:06;;;;;;;6.20;5.60;;;25.30;71.00;;;;;;4978041;28;20466;-66
2022/11/12 11:00:32;;;;;;;6.00;5.60;;;25.30;69.60;;;;;;4979917;28;20514;-65
2022/11/12 11:02:58;;;;;;;7.60;6.40;;;24.80;71.40;;;;;;4982009;28;20554;-66
2022/11/12 11:05:47;;;;;;;5.23;4.83;;;25.40;69.60;;;;;;4973142;28;20188;-67
2022/11/12 11:08:13;;;;;;;6.00;5.50;;;25.90;66.50;;;;;;4975348;28;20519;-67
2022/11/12 11:10:38;;;;;;;7.73;5.53;;;26.10;65.50;;;;;;4978554;28;20506;-66
2022/11/12 11:13:18;;;;;;;5.50;5.20;;;26.10;65.20;;;;;;4974978;28;20612;-67
2022/11/12 11:15:59;;;;;;;5.67;5.17;;;26.30;63.10;;;;;;4983142;28;20588;-66
2022/11/12 11:18:26;;;;;;;7.30;6.70;;;26.70;61.10;;;;;;4977265;28;20443;-66
2022/11/12 11:21:07;;;;;;;5.90;5.40;;;27.10;61.00;;;;;;4979393;28;20524;-66
2022/11/12 11:23:49;;;;;;;4.97;4.67;;;27.10;58.20;;;;;;4980269;28;20494;-65
2022/11/12 11:26:21;;;;;;;5.90;5.40;;;26.50;58.80;;;;;;4976961;28;20470;-66
2022/11/12 11:28:59;;;;;;;5.77;5.37;;;26.10;59.70;;;;;;4977233;28;20438;-66
2022/11/12 11:31:59;;;;;;;5.80;5.30;;;26.10;59.50;;;;;;4979672;28;20442;-66
2022/11/12 11:35:00;;;;;;;6.00;5.60;;;25.90;59.10;;;;;;4972465;28;20825;-66
2022/11/12 11:37:28;;;;;;;5.47;5.07;;;25.70;58.80;;;;;;4977126;28;20443;-66
2022/11/12 11:40:00;;;;;;;6.87;5.63;;;25.50;59.60;;;;;;4985378;28;20447;-66
2022/11/12 11:42:37;;;;;;;5.13;4.63;;;25.90;59.20;;;;;;4979396;28;20474;-66
2022/11/12 11:45:05;;;;;;;5.80;5.30;;;26.50;58.60;;;;;;4985581;28;20456;-67
2022/11/12 11:47:53;;;;;;;5.67;4.97;;;27.30;56.90;;;;;;4973841;28;20474;-66
2022/11/12 11:50:32;;;;;;;5.70;5.20;;;26.50;56.90;;;;;;4970964;28;20435;-66
2022/11/12 11:53:01;;;;;;;6.30;5.80;;;26.90;56.60;;;;;;4972463;28;20906;-66
2022/11/12 11:55:36;;;;;;;5.80;4.87;;;26.40;57.30;;;;;;4978930;28;20454;-66
2022/11/12 11:58:25;;;;;;;5.50;5.00;;;26.70;57.20;;;;;;4978180;28;20435;-66
2022/11/12 12:01:04;;;;;;;5.80;5.40;;;26.70;57.50;;;;;;4981185;28;20435;-66
2022/11/12 12:03:54;;;;;;;5.93;5.50;;;26.30;58.00;;;;;;4979987;28;20570;-66
2022/11/12 12:06:27;;;;;;;6.33;5.93;;;26.20;58.30;;;;;;4988686;28;20970;-66
2022/11/12 12:09:14;;;;;;;5.70;5.30;;;25.20;58.80;;;;;;4977740;28;20435;-67
2022/11/12 12:11:58;;;;;;;5.97;5.57;;;23.90;64.20;;;;;;4979445;28;20455;-72
2022/11/12 12:14:42;;;;;;;6.07;5.67;;;23.90;63.30;;;;;;4988997;28;20512;-66
2022/11/12 12:17:13;;;;;;;7.67;5.90;;;23.70;63.70;;;;;;4967205;28;20444;-66
2022/11/12 12:20:15;;;;;;;6.40;5.57;;;23.70;63.70;;;;;;4977752;28;20438;-65
2022/11/12 12:22:50;;;;;;;6.87;6.37;;;24.00;62.90;;;;;;4976354;28;20494;-65
2022/11/12 12:25:25;;;;;;;5.90;5.50;;;23.80;61.70;;;;;;4985163;28;20536;-65
2022/11/12 12:28:04;;;;;;;5.80;5.40;;;23.10;62.80;;;;;;4978954;28;20501;-66
2022/11/12 12:30:34;;;;;;;5.93;4.90;;;23.00;62.10;;;;;;4986793;28;20447;-65
2022/11/12 12:33:15;;;;;;;5.80;5.40;;;22.90;62.10;;;;;;4982626;28;20459;-65
2022/11/12 12:35:56;;;;;;;8.67;7.97;;;23.00;62.10;;;;;;4986048;28;20845;-65
2022/11/12 12:38:36;;;;;;;10.30;9.40;;;23.20;62.50;;;;;;4980623;28;20526;-65
2022/11/12 12:41:15;;;;;;;21.63;19.43;;;23.60;61.60;;;;;;4977317;28;20442;-67
2022/11/12 12:43:49;;;;;;;6.33;5.93;;;24.20;61.20;;;;;;4981050;28;20461;-67
2022/11/12 12:46:19;;;;;;;7.13;6.63;;;24.50;59.30;;;;;;4975508;28;20952;-67
2022/11/12 12:48:46;;;;;;;6.73;5.10;;;25.00;58.00;;;;;;4974347;28;20434;-67
2022/11/12 12:51:11;;;;;;;5.97;5.37;;;24.40;57.50;;;;;;4976531;28;20427;-67
2022/11/12 12:53:39;;;;;;;6.00;5.50;;;24.30;57.80;;;;;;4979924;28;20965;-67
2022/11/12 12:56:25;;;;;;;6.43;6.00;;;23.60;59.30;;;;;;4977941;28;20811;-66
2022/11/12 12:58:51;;;;;;;6.00;5.60;;;23.50;60.00;;;;;;4978075;28;20438;-66
2022/11/12 13:01:20;;;;;;;7.40;6.80;;;23.40;60.40;;;;;;4979891;28;20462;-65
2022/11/12 13:03:57;;;;;;;6.63;6.03;;;23.10;61.40;;;;;;4976616;28;20235;-66
2022/11/12 13:06:45;;;;;;;8.03;6.30;;;21.90;63.40;;;;;;4985191;28;20473;-65
2022/11/12 13:09:13;;;;;;;5.90;5.43;;;21.30;67.10;;;;;;4980778;28;20561;-65
2022/11/12 13:12:24;;;;;;;5.87;5.43;;;21.80;66.80;;;;;;4983321;28;20924;-66
2022/11/12 13:14:34;;;;;;;5.80;5.40;;;22.10;65.70;;;;;;4975512;28;20464;-65
2022/11/12 13:17:31;;;;;;;5.73;5.33;;;22.60;64.40;;;;;;4984852;28;20434;-65
2022/11/12 13:19:57;;;;;;;6.93;6.37;;;22.80;64.10;;;;;;4985779;28;20933;-66
2022/11/12 13:22:23;;;;;;;7.50;6.87;;;23.40;63.50;;;;;;4991653;28;20460;-66
2022/11/12 13:25:03;;;;;;;5.97;5.47;;;23.60;62.50;;;;;;4985789;28;20271;-66